sensor_id;sensor_type;location;lat;lon;timestamp;pressure;altitude;pressure_sealevel;temperature;humidity
17521;BME280;8878;-33.370;-70.552;2022-09-17T00:01:46;92236.84;;;10.38;100.00
17521;BME280;8878;-33.370;-70.552;2022-09-17T00:04:15;92231.88;;;10.51;100.00
17521;BME280;8878;-33.370;-70.552;2022-09-17T00:06:46;92229.25;;;10.72;100.00
17521;BME280;8878;-33.370;-70.552;2022-09-17T00:09:15;92237.94;;;10.72;100.00
17521;BME280;8878;-33.370;-70.552;2022-09-17T00:11:45;92238.97;;;10.61;100.00
17521;BME280;8878;-33.370;-70.552;2022-09-17T00:14:16;92247.13;;;10.39;100.00
17521;BME280;8878;-33.370;-70.552;2022-09-17T00:16:47;92248.47;;;10.42;100.00
17521;BME280;8878;-33.370;-70.552;2022-09-17T00:19:18;92238.97;;;10.46;100.00
17521;BME280;8878;-33.370;-70.552;2022-09-17T00:21:50;92249.00;;;10.49;100.00
17521;BME280;8878;-33.370;-70.552;2022-09-17T00:24:20;92233.16;;;10.39;100.00
17521;BME280;8878;-33.370;-70.552;2022-09-17T00:26:49;92229.75;;;10.53;100.00
17521;BME280;8878;-33.370;-70.552;2022-09-17T00:29:19;92228.94;;;10.53;100.00
17521;BME280;8878;-33.370;-70.552;2022-09-17T00:31:48;92229.50;;;10.70;100.00
17521;BME280;8878;-33.370;-70.552;2022-09-17T00:34:18;92233.44;;;10.93;100.00
17521;BME280;8878;-33.370;-70.552;2022-09-17T00:36:49;92241.91;;;11.00;100.00
17521;BME280;8878;-33.370;-70.552;2022-09-17T00:39:18;92239.47;;;11.09;100.00
17521;BME280;8878;-33.370;-70.552;2022-09-17T00:41:47;92227.59;;;11.21;100.00
17521;BME280;8878;-33.370;-70.552;2022-09-17T00:44:38;92229.41;;;11.31;100.00
17521;BME280;8878;-33.370;-70.552;2022-09-17T00:47:13;92228.09;;;11.23;100.00
17521;BME280;8878;-33.370;-70.552;2022-09-17T00:49:45;92222.53;;;11.30;100.00
17521;BME280;8878;-33.370;-70.552;2022-09-17T00:52:20;92225.72;;;11.42;100.00
17521;BME280;8878;-33.370;-70.552;2022-09-17T00:54:54;92220.13;;;11.54;100.00
17521;BME280;8878;-33.370;-70.552;2022-09-17T00:57:26;92217.47;;;11.54;100.00
17521;BME280;8878;-33.370;-70.552;2022-09-17T00:59:56;92207.75;;;11.39;100.00
17521;BME280;8878;-33.370;-70.552;2022-09-17T01:02:26;92216.50;;;11.29;100.00
17521;BME280;8878;-33.370;-70.552;2022-09-17T01:04:55;92197.25;;;11.04;100.00
17521;BME280;8878;-33.370;-70.552;2022-09-17T01:07:53;92195.47;;;10.79;100.00
17521;BME280;8878;-33.370;-70.552;2022-09-17T01:10:40;92197.03;;;10.85;100.00
17521;BME280;8878;-33.370;-70.552;2022-09-17T01:13:26;92194.41;;;10.80;100.00
17521;BME280;8878;-33.370;-70.552;2022-09-17T01:16:05;92203.09;;;10.75;100.00
17521;BME280;8878;-33.370;-70.552;2022-09-17T01:18:46;92198.88;;;10.74;100.00
17521;BME280;8878;-33.370;-70.552;2022-09-17T01:21:40;92191.50;;;10.71;100.00
17521;BME280;8878;-33.370;-70.552;2022-09-17T01:24:35;92193.34;;;10.66;100.00
17521;BME280;8878;-33.370;-70.552;2022-09-17T01:33:16;92191.75;;;10.75;100.00
17521;BME280;8878;-33.370;-70.552;2022-09-17T01:36:02;92188.31;;;10.74;100.00
17521;BME280;8878;-33.370;-70.552;2022-09-17T01:38:42;92200.72;;;10.74;100.00
17521;BME280;8878;-33.370;-70.552;2022-09-17T01:41:28;92202.59;;;10.78;100.00
17521;BME280;8878;-33.370;-70.552;2022-09-17T01:44:03;92198.34;;;10.67;100.00
17521;BME280;8878;-33.370;-70.552;2022-09-17T01:46:39;92195.72;;;10.77;100.00
17521;BME280;8878;-33.370;-70.552;2022-09-17T01:49:12;92191.22;;;10.68;100.00
17521;BME280;8878;-33.370;-70.552;2022-09-17T01:51:45;92193.09;;;10.37;100.00
17521;BME280;8878;-33.370;-70.552;2022-09-17T01:54:18;92202.81;;;10.21;100.00
17521;BME280;8878;-33.370;-70.552;2022-09-17T01:56:53;92205.19;;;10.17;100.00
17521;BME280;8878;-33.370;-70.552;2022-09-17T01:59:27;92214.97;;;10.22;100.00
17521;BME280;8878;-33.370;-70.552;2022-09-17T02:02:02;92206.28;;;10.37;100.00
17521;BME280;8878;-33.370;-70.552;2022-09-17T02:04:43;92214.16;;;10.52;100.00
17521;BME280;8878;-33.370;-70.552;2022-09-17T02:07:18;92199.91;;;10.38;100.00
17521;BME280;8878;-33.370;-70.552;2022-09-17T02:09:51;92189.91;;;10.45;100.00
17521;BME280;8878;-33.370;-70.552;2022-09-17T02:12:27;92198.06;;;10.23;100.00
17521;BME280;8878;-33.370;-70.552;2022-09-17T02:15:01;92199.59;;;10.09;100.00
17521;BME280;8878;-33.370;-70.552;2022-09-17T02:17:38;92195.09;;;9.99;100.00
17521;BME280;8878;-33.370;-70.552;2022-09-17T02:20:10;92181.72;;;10.26;100.00
17521;BME280;8878;-33.370;-70.552;2022-09-17T02:22:42;92182.53;;;10.42;100.00
17521;BME280;8878;-33.370;-70.552;2022-09-17T02:25:17;92169.88;;;10.44;100.00
17521;BME280;8878;-33.370;-70.552;2022-09-17T02:27:52;92164.06;;;10.27;100.00
17521;BME280;8878;-33.370;-70.552;2022-09-17T02:30:26;92167.25;;;10.29;100.00
17521;BME280;8878;-33.370;-70.552;2022-09-17T02:32:55;92166.19;;;10.30;100.00
17521;BME280;8878;-33.370;-70.552;2022-09-17T02:35:26;92166.94;;;10.30;100.00
17521;BME280;8878;-33.370;-70.552;2022-09-17T02:37:56;92162.50;;;10.41;100.00
17521;BME280;8878;-33.370;-70.552;2022-09-17T02:40:28;92160.38;;;10.38;100.00
17521;BME280;8878;-33.370;-70.552;2022-09-17T02:43:07;92161.44;;;10.42;100.00
17521;BME280;8878;-33.370;-70.552;2022-09-17T02:45:47;92158.00;;;10.31;100.00
17521;BME280;8878;-33.370;-70.552;2022-09-17T02:48:33;92170.91;;;10.17;100.00
17521;BME280;8878;-33.370;-70.552;2022-09-17T02:51:25;92164.88;;;10.22;100.00
17521;BME280;8878;-33.370;-70.552;2022-09-17T02:54:11;92171.72;;;10.28;100.00
17521;BME280;8878;-33.370;-70.552;2022-09-17T02:56:48;92180.94;;;10.26;100.00
17521;BME280;8878;-33.370;-70.552;2022-09-17T02:59:25;92177.38;;;9.69;100.00
17521;BME280;8878;-33.370;-70.552;2022-09-17T03:02:01;92183.19;;;9.81;100.00
17521;BME280;8878;-33.370;-70.552;2022-09-17T03:04:33;92179.75;;;9.76;100.00
17521;BME280;8878;-33.370;-70.552;2022-09-17T03:07:07;92180.84;;;9.85;100.00
17521;BME280;8878;-33.370;-70.552;2022-09-17T03:09:38;92172.09;;;9.69;100.00
17521;BME280;8878;-33.370;-70.552;2022-09-17T03:12:09;92172.28;;;9.48;100.00
17521;BME280;8878;-33.370;-70.552;2022-09-17T03:14:39;92182.28;;;9.40;100.00
17521;BME280;8878;-33.370;-70.552;2022-09-17T03:17:10;92179.88;;;9.39;100.00
17521;BME280;8878;-33.370;-70.552;2022-09-17T03:19:41;92176.47;;;9.38;100.00
17521;BME280;8878;-33.370;-70.552;2022-09-17T03:22:11;92175.91;;;9.31;100.00
17521;BME280;8878;-33.370;-70.552;2022-09-17T03:24:41;92162.22;;;9.29;100.00
17521;BME280;8878;-33.370;-70.552;2022-09-17T03:27:10;92162.78;;;9.36;100.00
17521;BME280;8878;-33.370;-70.552;2022-09-17T03:29:39;92155.94;;;9.35;100.00
17521;BME280;8878;-33.370;-70.552;2022-09-17T03:32:09;92166.03;;;9.59;100.00
17521;BME280;8878;-33.370;-70.552;2022-09-17T03:34:38;92156.84;;;9.76;100.00
17521;BME280;8878;-33.370;-70.552;2022-09-17T03:37:08;92164.25;;;9.85;100.00
17521;BME280;8878;-33.370;-70.552;2022-09-17T03:39:39;92157.13;;;9.80;100.00
17521;BME280;8878;-33.370;-70.552;2022-09-17T03:42:08;92151.28;;;9.63;100.00
17521;BME280;8878;-33.370;-70.552;2022-09-17T03:44:37;92151.84;;;9.75;100.00
17521;BME280;8878;-33.370;-70.552;2022-09-17T03:47:08;92145.53;;;9.86;100.00
17521;BME280;8878;-33.370;-70.552;2022-09-17T03:49:38;92153.69;;;9.95;100.00
17521;BME280;8878;-33.370;-70.552;2022-09-17T03:52:08;92150.31;;;9.94;100.00
17521;BME280;8878;-33.370;-70.552;2022-09-17T03:54:39;92158.97;;;9.79;100.00
17521;BME280;8878;-33.370;-70.552;2022-09-17T03:57:08;92151.88;;;9.80;100.00
17521;BME280;8878;-33.370;-70.552;2022-09-17T03:59:38;92146.06;;;9.83;100.00
17521;BME280;8878;-33.370;-70.552;2022-09-17T04:02:07;92149.75;;;9.87;100.00
17521;BME280;8878;-33.370;-70.552;2022-09-17T04:04:36;92149.22;;;9.95;100.00
17521;BME280;8878;-33.370;-70.552;2022-09-17T04:07:06;92150.56;;;10.03;100.00
17521;BME280;8878;-33.370;-70.552;2022-09-17T04:09:35;92151.09;;;10.00;100.00
17521;BME280;8878;-33.370;-70.552;2022-09-17T04:12:07;92152.69;;;10.01;100.00
17521;BME280;8878;-33.370;-70.552;2022-09-17T04:14:36;92160.59;;;10.01;100.00
17521;BME280;8878;-33.370;-70.552;2022-09-17T04:17:05;92155.81;;;10.03;100.00
17521;BME280;8878;-33.370;-70.552;2022-09-17T04:19:35;92155.03;;;10.02;100.00
17521;BME280;8878;-33.370;-70.552;2022-09-17T04:22:04;92168.50;;;10.06;100.00
17521;BME280;8878;-33.370;-70.552;2022-09-17T04:24:33;92158.94;;;9.64;100.00
17521;BME280;8878;-33.370;-70.552;2022-09-17T04:27:03;92161.81;;;9.58;100.00
17521;BME280;8878;-33.370;-70.552;2022-09-17T04:29:34;92162.00;;;9.46;100.00
17521;BME280;8878;-33.370;-70.552;2022-09-17T04:32:03;92164.88;;;9.29;100.00
17521;BME280;8878;-33.370;-70.552;2022-09-17T04:34:32;92168.31;;;9.40;100.00
17521;BME280;8878;-33.370;-70.552;2022-09-17T04:37:02;92155.75;;;9.62;100.00
17521;BME280;8878;-33.370;-70.552;2022-09-17T04:39:31;92163.94;;;9.66;100.00
17521;BME280;8878;-33.370;-70.552;2022-09-17T04:42:01;92163.34;;;9.54;100.00
17521;BME280;8878;-33.370;-70.552;2022-09-17T04:44:30;92166.00;;;9.54;100.00
17521;BME280;8878;-33.370;-70.552;2022-09-17T04:47:01;92155.50;;;9.69;100.00
17521;BME280;8878;-33.370;-70.552;2022-09-17T04:49:32;92155.84;;;9.93;100.00
17521;BME280;8878;-33.370;-70.552;2022-09-17T04:52:01;92165.56;;;10.02;100.00
17521;BME280;8878;-33.370;-70.552;2022-09-17T04:54:31;92164.53;;;9.98;100.00
17521;BME280;8878;-33.370;-70.552;2022-09-17T04:57:02;92159.28;;;10.08;100.00
17521;BME280;8878;-33.370;-70.552;2022-09-17T04:59:31;92158.75;;;10.11;100.00
17521;BME280;8878;-33.370;-70.552;2022-09-17T05:02:03;92159.25;;;10.03;100.00
17521;BME280;8878;-33.370;-70.552;2022-09-17T05:04:32;92162.69;;;10.04;100.00
17521;BME280;8878;-33.370;-70.552;2022-09-17T05:07:02;92157.69;;;10.12;100.00
17521;BME280;8878;-33.370;-70.552;2022-09-17T05:09:31;92155.31;;;10.06;100.00
17521;BME280;8878;-33.370;-70.552;2022-09-17T05:12:01;92161.31;;;9.76;100.00
17521;BME280;8878;-33.370;-70.552;2022-09-17T05:14:30;92155.50;;;9.64;100.00
17521;BME280;8878;-33.370;-70.552;2022-09-17T05:17:01;92155.00;;;9.72;100.00
17521;BME280;8878;-33.370;-70.552;2022-09-17T05:19:30;92166.09;;;9.84;100.00
17521;BME280;8878;-33.370;-70.552;2022-09-17T05:22:00;92165.31;;;9.94;100.00
17521;BME280;8878;-33.370;-70.552;2022-09-17T05:24:29;92167.41;;;10.02;100.00
17521;BME280;8878;-33.370;-70.552;2022-09-17T05:26:59;92163.22;;;10.11;100.00
17521;BME280;8878;-33.370;-70.552;2022-09-17T05:29:28;92164.28;;;10.10;100.00
17521;BME280;8878;-33.370;-70.552;2022-09-17T05:31:58;92163.47;;;10.09;100.00
17521;BME280;8878;-33.370;-70.552;2022-09-17T05:34:30;92160.88;;;10.14;100.00
17521;BME280;8878;-33.370;-70.552;2022-09-17T05:36:59;92155.31;;;10.06;100.00
17521;BME280;8878;-33.370;-70.552;2022-09-17T05:39:29;92150.84;;;10.06;100.00
17521;BME280;8878;-33.370;-70.552;2022-09-17T05:41:59;92154.78;;;10.09;100.00
17521;BME280;8878;-33.370;-70.552;2022-09-17T05:44:28;92153.22;;;10.13;100.00
17521;BME280;8878;-33.370;-70.552;2022-09-17T05:46:58;92155.06;;;10.12;100.00
17521;BME280;8878;-33.370;-70.552;2022-09-17T05:49:29;92150.34;;;10.19;100.00
17521;BME280;8878;-33.370;-70.552;2022-09-17T05:51:58;92155.09;;;10.28;100.00
17521;BME280;8878;-33.370;-70.552;2022-09-17T05:54:29;92154.00;;;10.13;100.00
17521;BME280;8878;-33.370;-70.552;2022-09-17T05:56:58;92154.25;;;10.12;100.00
17521;BME280;8878;-33.370;-70.552;2022-09-17T05:59:28;92156.16;;;10.22;100.00
17521;BME280;8878;-33.370;-70.552;2022-09-17T06:01:57;92150.34;;;10.25;100.00
17521;BME280;8878;-33.370;-70.552;2022-09-17T06:04:29;92136.91;;;10.21;100.00
17521;BME280;8878;-33.370;-70.552;2022-09-17T06:06:59;92141.13;;;10.27;100.00
17521;BME280;8878;-33.370;-70.552;2022-09-17T06:09:28;92141.94;;;10.23;100.00
17521;BME280;8878;-33.370;-70.552;2022-09-17T06:11:57;92148.72;;;9.98;100.00
17521;BME280;8878;-33.370;-70.552;2022-09-17T06:14:26;92143.16;;;9.85;100.00
17521;BME280;8878;-33.370;-70.552;2022-09-17T06:16:56;92146.81;;;9.73;100.00
17521;BME280;8878;-33.370;-70.552;2022-09-17T06:19:27;92151.28;;;9.68;100.00
17521;BME280;8878;-33.370;-70.552;2022-09-17T06:21:58;92142.81;;;9.51;100.00
17521;BME280;8878;-33.370;-70.552;2022-09-17T06:24:27;92132.53;;;9.49;100.00
17521;BME280;8878;-33.370;-70.552;2022-09-17T06:26:57;92126.75;;;9.47;100.00
17521;BME280;8878;-33.370;-70.552;2022-09-17T06:29:26;92124.88;;;9.42;100.00
17521;BME280;8878;-33.370;-70.552;2022-09-17T06:31:55;92114.06;;;9.34;100.00
17521;BME280;8878;-33.370;-70.552;2022-09-17T06:34:25;92117.78;;;9.43;100.00
17521;BME280;8878;-33.370;-70.552;2022-09-17T06:36:54;92115.44;;;9.52;100.00
17521;BME280;8878;-33.370;-70.552;2022-09-17T06:39:25;92111.75;;;9.58;100.00
17521;BME280;8878;-33.370;-70.552;2022-09-17T06:41:54;92110.38;;;9.40;100.00
17521;BME280;8878;-33.370;-70.552;2022-09-17T06:44:24;92097.50;;;9.49;100.00
17521;BME280;8878;-33.370;-70.552;2022-09-17T06:46:53;92098.59;;;9.58;100.00
17521;BME280;8878;-33.370;-70.552;2022-09-17T06:49:24;92089.06;;;9.47;100.00
17521;BME280;8878;-33.370;-70.552;2022-09-17T06:51:54;92086.47;;;9.52;100.00
17521;BME280;8878;-33.370;-70.552;2022-09-17T06:54:26;92086.72;;;9.50;100.00
17521;BME280;8878;-33.370;-70.552;2022-09-17T06:56:55;92091.97;;;9.40;100.00
17521;BME280;8878;-33.370;-70.552;2022-09-17T06:59:25;92080.13;;;9.42;100.00
17521;BME280;8878;-33.370;-70.552;2022-09-17T07:01:54;92074.59;;;9.44;100.00
17521;BME280;8878;-33.370;-70.552;2022-09-17T07:04:24;92071.94;;;9.39;100.00
17521;BME280;8878;-33.370;-70.552;2022-09-17T07:06:53;92075.91;;;9.41;100.00
17521;BME280;8878;-33.370;-70.552;2022-09-17T07:09:24;92074.31;;;9.40;100.00
17521;BME280;8878;-33.370;-70.552;2022-09-17T07:11:53;92064.84;;;9.39;100.00
17521;BME280;8878;-33.370;-70.552;2022-09-17T07:14:23;92059.06;;;9.53;100.00
17521;BME280;8878;-33.370;-70.552;2022-09-17T07:16:52;92061.72;;;9.63;100.00
17521;BME280;8878;-33.370;-70.552;2022-09-17T07:19:21;92074.91;;;9.58;100.00
17521;BME280;8878;-33.370;-70.552;2022-09-17T07:21:51;92081.75;;;9.69;100.00
17521;BME280;8878;-33.370;-70.552;2022-09-17T07:24:20;92064.06;;;9.54;100.00
17521;BME280;8878;-33.370;-70.552;2022-09-17T07:26:51;92070.16;;;9.65;100.00
17521;BME280;8878;-33.370;-70.552;2022-09-17T07:29:20;92053.59;;;9.85;100.00
17521;BME280;8878;-33.370;-70.552;2022-09-17T07:31:52;92053.31;;;9.66;100.00
17521;BME280;8878;-33.370;-70.552;2022-09-17T07:34:21;92047.25;;;9.70;100.00
17521;BME280;8878;-33.370;-70.552;2022-09-17T07:36:50;92053.31;;;9.76;100.00
17521;BME280;8878;-33.370;-70.552;2022-09-17T07:39:20;92049.63;;;9.82;100.00
17521;BME280;8878;-33.370;-70.552;2022-09-17T07:41:51;92060.66;;;9.74;100.00
17521;BME280;8878;-33.370;-70.552;2022-09-17T07:44:20;92059.59;;;9.55;100.00
17521;BME280;8878;-33.370;-70.552;2022-09-17T07:46:50;92071.13;;;9.23;100.00
17521;BME280;8878;-33.370;-70.552;2022-09-17T07:49:19;92061.34;;;9.09;100.00
17521;BME280;8878;-33.370;-70.552;2022-09-17T07:51:48;92067.41;;;9.19;100.00
17521;BME280;8878;-33.370;-70.552;2022-09-17T07:54:17;92065.56;;;9.15;100.00
17521;BME280;8878;-33.370;-70.552;2022-09-17T07:56:47;92065.81;;;9.08;100.00
17521;BME280;8878;-33.370;-70.552;2022-09-17T07:59:18;92066.56;;;8.98;100.00
17521;BME280;8878;-33.370;-70.552;2022-09-17T08:01:47;92061.25;;;8.83;100.00
17521;BME280;8878;-33.370;-70.552;2022-09-17T08:04:17;92054.94;;;8.89;100.00
17521;BME280;8878;-33.370;-70.552;2022-09-17T08:06:47;92064.94;;;8.87;100.00
17521;BME280;8878;-33.370;-70.552;2022-09-17T08:09:16;92056.69;;;8.69;100.00
17521;BME280;8878;-33.370;-70.552;2022-09-17T08:11:46;92052.38;;;8.47;100.00
17521;BME280;8878;-33.370;-70.552;2022-09-17T08:14:17;92054.75;;;8.49;100.00
17521;BME280;8878;-33.370;-70.552;2022-09-17T08:16:46;92069.50;;;8.50;100.00
17521;BME280;8878;-33.370;-70.552;2022-09-17T08:19:16;92071.88;;;8.51;100.00
17521;BME280;8878;-33.370;-70.552;2022-09-17T08:21:46;92085.66;;;8.32;100.00
17521;BME280;8878;-33.370;-70.552;2022-09-17T08:24:15;92080.97;;;8.34;100.00
17521;BME280;8878;-33.370;-70.552;2022-09-17T08:26:44;92081.47;;;8.31;100.00
17521;BME280;8878;-33.370;-70.552;2022-09-17T08:29:14;92082.19;;;8.26;100.00
17521;BME280;8878;-33.370;-70.552;2022-09-17T08:31:45;92083.75;;;8.22;100.00
17521;BME280;8878;-33.370;-70.552;2022-09-17T08:34:14;92087.63;;;8.14;100.00
17521;BME280;8878;-33.370;-70.552;2022-09-17T08:36:43;92084.88;;;7.99;100.00
17521;BME280;8878;-33.370;-70.552;2022-09-17T08:39:13;92092.50;;;7.96;100.00
17521;BME280;8878;-33.370;-70.552;2022-09-17T08:41:53;92094.38;;;8.00;100.00
17521;BME280;8878;-33.370;-70.552;2022-09-17T08:44:26;92109.88;;;8.02;100.00
17521;BME280;8878;-33.370;-70.552;2022-09-17T08:47:02;92110.41;;;8.04;100.00
17521;BME280;8878;-33.370;-70.552;2022-09-17T08:49:39;92121.97;;;8.03;100.00
17521;BME280;8878;-33.370;-70.552;2022-09-17T08:55:06;92115.16;;;8.07;100.00
17521;BME280;8878;-33.370;-70.552;2022-09-17T08:57:47;92122.34;;;8.16;100.00
17521;BME280;8878;-33.370;-70.552;2022-09-17T09:00:20;92114.03;;;7.98;100.00
17521;BME280;8878;-33.370;-70.552;2022-09-17T09:03:06;92114.81;;;8.30;100.00
17521;BME280;8878;-33.370;-70.552;2022-09-17T09:05:45;92126.75;;;8.43;100.00
17521;BME280;8878;-33.370;-70.552;2022-09-17T09:08:21;92117.97;;;8.64;100.00
17521;BME280;8878;-33.370;-70.552;2022-09-17T09:10:55;92118.66;;;8.49;100.00
17521;BME280;8878;-33.370;-70.552;2022-09-17T09:13:27;92117.38;;;8.57;100.00
17521;BME280;8878;-33.370;-70.552;2022-09-17T09:15:59;92107.78;;;8.78;100.00
17521;BME280;8878;-33.370;-70.552;2022-09-17T09:18:36;92111.28;;;8.98;100.00
17521;BME280;8878;-33.370;-70.552;2022-09-17T09:21:17;92119.50;;;9.12;100.00
17521;BME280;8878;-33.370;-70.552;2022-09-17T09:23:53;92113.75;;;9.25;100.00
17521;BME280;8878;-33.370;-70.552;2022-09-17T09:26:39;92123.75;;;9.18;100.00
17521;BME280;8878;-33.370;-70.552;2022-09-17T09:29:19;92119.00;;;9.20;100.00
17521;BME280;8878;-33.370;-70.552;2022-09-17T09:32:08;92112.47;;;9.38;100.00
17521;BME280;8878;-33.370;-70.552;2022-09-17T09:34:48;92125.81;;;9.06;100.00
17521;BME280;8878;-33.370;-70.552;2022-09-17T09:37:22;92135.22;;;8.97;100.00
17521;BME280;8878;-33.370;-70.552;2022-09-17T09:39:55;92125.31;;;9.09;100.00
17521;BME280;8878;-33.370;-70.552;2022-09-17T09:42:31;92132.84;;;8.95;100.00
17521;BME280;8878;-33.370;-70.552;2022-09-17T09:45:11;92148.03;;;8.83;100.00
17521;BME280;8878;-33.370;-70.552;2022-09-17T09:47:55;92140.72;;;8.95;100.00
17521;BME280;8878;-33.370;-70.552;2022-09-17T09:50:37;92153.19;;;9.10;100.00
17521;BME280;8878;-33.370;-70.552;2022-09-17T09:53:18;92146.84;;;9.06;100.00
17521;BME280;8878;-33.370;-70.552;2022-09-17T09:55:59;92159.53;;;9.19;100.00
17521;BME280;8878;-33.370;-70.552;2022-09-17T09:58:35;92157.22;;;9.28;100.00
17521;BME280;8878;-33.370;-70.552;2022-09-17T10:01:11;92150.91;;;9.29;100.00
17521;BME280;8878;-33.370;-70.552;2022-09-17T10:03:43;92150.50;;;8.95;100.00
17521;BME280;8878;-33.370;-70.552;2022-09-17T10:06:16;92162.28;;;8.87;100.00
17521;BME280;8878;-33.370;-70.552;2022-09-17T10:09:09;92162.25;;;8.82;100.00
17521;BME280;8878;-33.370;-70.552;2022-09-17T10:11:39;92161.19;;;8.78;100.00
17521;BME280;8878;-33.370;-70.552;2022-09-17T10:14:20;92168.94;;;9.05;100.00
17521;BME280;8878;-33.370;-70.552;2022-09-17T10:20:11;92178.50;;;9.16;100.00
17521;BME280;8878;-33.370;-70.552;2022-09-17T10:22:44;92186.19;;;9.28;100.00
17521;BME280;8878;-33.370;-70.552;2022-09-17T10:25:28;92180.03;;;9.07;100.00
17521;BME280;8878;-33.370;-70.552;2022-09-17T10:28:00;92186.00;;;8.92;100.00
17521;BME280;8878;-33.370;-70.552;2022-09-17T10:30:30;92187.81;;;8.92;100.00
17521;BME280;8878;-33.370;-70.552;2022-09-17T10:33:19;92187.38;;;9.05;100.00
17521;BME280;8878;-33.370;-70.552;2022-09-17T10:35:58;92191.28;;;9.02;100.00
17521;BME280;8878;-33.370;-70.552;2022-09-17T10:38:33;92183.94;;;9.04;100.00
17521;BME280;8878;-33.370;-70.552;2022-09-17T10:41:17;92185.63;;;9.21;100.00
17521;BME280;8878;-33.370;-70.552;2022-09-17T10:43:49;92181.41;;;9.25;100.00
17521;BME280;8878;-33.370;-70.552;2022-09-17T10:46:21;92189.06;;;9.31;100.00
17521;BME280;8878;-33.370;-70.552;2022-09-17T10:49:04;92195.72;;;9.44;100.00
17521;BME280;8878;-33.370;-70.552;2022-09-17T10:51:37;92204.19;;;9.56;100.00
17521;BME280;8878;-33.370;-70.552;2022-09-17T10:57:12;92203.41;;;9.56;100.00
17521;BME280;8878;-33.370;-70.552;2022-09-17T11:00:03;92212.31;;;9.45;100.00
17521;BME280;8878;-33.370;-70.552;2022-09-17T11:08:43;92215.28;;;9.58;100.00
17521;BME280;8878;-33.370;-70.552;2022-09-17T11:11:26;92218.63;;;9.43;100.00
17521;BME280;8878;-33.370;-70.552;2022-09-17T11:14:06;92226.44;;;9.23;100.00
17521;BME280;8878;-33.370;-70.552;2022-09-17T11:16:43;92226.69;;;9.22;100.00
17521;BME280;8878;-33.370;-70.552;2022-09-17T11:19:22;92216.97;;;9.27;100.00
17521;BME280;8878;-33.370;-70.552;2022-09-17T11:21:59;92226.47;;;9.33;100.00
17521;BME280;8878;-33.370;-70.552;2022-09-17T11:24:51;92226.78;;;9.37;100.00
17521;BME280;8878;-33.370;-70.552;2022-09-17T11:30:17;92226.88;;;9.67;100.00
17521;BME280;8878;-33.370;-70.552;2022-09-17T11:33:12;92233.50;;;9.75;100.00
17521;BME280;8878;-33.370;-70.552;2022-09-17T11:35:47;92241.19;;;9.87;100.00
17521;BME280;8878;-33.370;-70.552;2022-09-17T11:38:25;92236.94;;;9.75;100.00
17521;BME280;8878;-33.370;-70.552;2022-09-17T11:41:01;92247.88;;;9.52;100.00
17521;BME280;8878;-33.370;-70.552;2022-09-17T11:43:44;92247.78;;;9.32;100.00
17521;BME280;8878;-33.370;-70.552;2022-09-17T11:46:18;92241.13;;;9.14;100.00
17521;BME280;8878;-33.370;-70.552;2022-09-17T11:48:53;92252.97;;;9.17;100.00
17521;BME280;8878;-33.370;-70.552;2022-09-17T11:51:31;92253.25;;;9.20;100.00
17521;BME280;8878;-33.370;-70.552;2022-09-17T11:54:07;92262.41;;;9.08;100.00
17521;BME280;8878;-33.370;-70.552;2022-09-17T11:56:50;92263.44;;;9.07;100.00
17521;BME280;8878;-33.370;-70.552;2022-09-17T11:59:30;92258.41;;;9.00;100.00
17521;BME280;8878;-33.370;-70.552;2022-09-17T12:02:04;92262.16;;;9.09;100.00
17521;BME280;8878;-33.370;-70.552;2022-09-17T12:04:46;92267.31;;;8.94;100.00
17521;BME280;8878;-33.370;-70.552;2022-09-17T12:07:27;92282.88;;;9.00;100.00
17521;BME280;8878;-33.370;-70.552;2022-09-17T12:10:28;92275.47;;;8.97;100.00
17521;BME280;8878;-33.370;-70.552;2022-09-17T12:13:06;92286.81;;;9.03;100.00
17521;BME280;8878;-33.370;-70.552;2022-09-17T12:15:44;92286.94;;;9.18;100.00
17521;BME280;8878;-33.370;-70.552;2022-09-17T12:18:23;92287.44;;;9.15;100.00
17521;BME280;8878;-33.370;-70.552;2022-09-17T12:20:56;92290.91;;;8.84;100.00
17521;BME280;8878;-33.370;-70.552;2022-09-17T12:23:35;92294.50;;;9.10;100.00
17521;BME280;8878;-33.370;-70.552;2022-09-17T12:26:14;92299.47;;;9.01;100.00
17521;BME280;8878;-33.370;-70.552;2022-09-17T12:28:51;92291.50;;;8.96;100.00
17521;BME280;8878;-33.370;-70.552;2022-09-17T12:31:31;92293.34;;;8.95;100.00
17521;BME280;8878;-33.370;-70.552;2022-09-17T12:37:04;92308.69;;;8.72;100.00
17521;BME280;8878;-33.370;-70.552;2022-09-17T12:40:02;92314.06;;;8.55;100.00
17521;BME280;8878;-33.370;-70.552;2022-09-17T12:45:37;92316.53;;;8.67;100.00
17521;BME280;8878;-33.370;-70.552;2022-09-17T12:48:34;92319.28;;;8.82;100.00
17521;BME280;8878;-33.370;-70.552;2022-09-17T12:51:19;92310.50;;;8.66;100.00
17521;BME280;8878;-33.370;-70.552;2022-09-17T12:53:58;92312.69;;;8.79;100.00
17521;BME280;8878;-33.370;-70.552;2022-09-17T12:56:43;92311.81;;;8.69;100.00
17521;BME280;8878;-33.370;-70.552;2022-09-17T12:59:16;92307.69;;;8.78;100.00
17521;BME280;8878;-33.370;-70.552;2022-09-17T13:01:51;92302.75;;;8.54;100.00
17521;BME280;8878;-33.370;-70.552;2022-09-17T13:04:44;92301.00;;;8.65;100.00
17521;BME280;8878;-33.370;-70.552;2022-09-17T13:07:46;92316.34;;;8.73;100.00
17521;BME280;8878;-33.370;-70.552;2022-09-17T13:10:40;92309.19;;;8.69;100.00
17521;BME280;8878;-33.370;-70.552;2022-09-17T13:13:35;92314.41;;;8.63;100.00
17521;BME280;8878;-33.370;-70.552;2022-09-17T13:16:12;92312.38;;;8.71;100.00
17521;BME280;8878;-33.370;-70.552;2022-09-17T13:18:54;92312.84;;;8.68;100.00
17521;BME280;8878;-33.370;-70.552;2022-09-17T13:21:38;92317.91;;;8.47;100.00
17521;BME280;8878;-33.370;-70.552;2022-09-17T13:24:15;92320.41;;;8.32;100.00
17521;BME280;8878;-33.370;-70.552;2022-09-17T13:26:45;92316.34;;;8.46;100.00
17521;BME280;8878;-33.370;-70.552;2022-09-17T13:29:57;92319.34;;;8.60;100.00
17521;BME280;8878;-33.370;-70.552;2022-09-17T13:32:50;92316.44;;;8.56;100.00
17521;BME280;8878;-33.370;-70.552;2022-09-17T13:35:47;92327.31;;;8.38;100.00
17521;BME280;8878;-33.370;-70.552;2022-09-17T13:38:20;92326.75;;;8.36;100.00
17521;BME280;8878;-33.370;-70.552;2022-09-17T13:41:18;92324.28;;;8.51;100.00
17521;BME280;8878;-33.370;-70.552;2022-09-17T13:43:50;92330.13;;;8.58;100.00
17521;BME280;8878;-33.370;-70.552;2022-09-17T13:46:22;92335.25;;;8.43;100.00